Time,TemperatureF,DewpointF,PressureIn,WindDirection,WindDirectionDegrees,WindSpeedMPH,WindSpeedGustMPH,Humidity,HourlyPrecipIn,Conditions,Clouds,dailyrainin,SoftwareType,DateUTC
2013-02-17 00:37:00,20.1,3.9,29.82,WNW,293,4.0,4.0,49,0.00,,,0.00,WUHU21623XXSP,2013-02-17 05:37:00,
2013-02-17 01:37:00,19.6,3.9,29.80,WNW,293,7.6,7.6,50,0.00,,,0.00,WUHU21623XXSP,2013-02-17 06:37:00,
2013-02-17 02:37:00,19.0,3.3,29.78,WNW,293,2.9,2.9,50,0.00,,,0.00,WUHU21623XXSP,2013-02-17 07:37:00,
2013-02-17 03:37:00,18.0,2.9,29.76,West,270,5.1,5.1,51,0.00,,,0.00,WUHU21623XXSP,2013-02-17 08:37:00,
2013-02-17 04:37:00,16.5,1.9,29.74,West,270,5.1,5.1,52,0.00,,,0.00,WUHU21623XXSP,2013-02-17 09:37:00,
2013-02-17 05:37:00,15.6,2.3,29.72,West,270,1.8,1.8,55,0.00,,,0.00,WUHU21623XXSP,2013-02-17 10:37:00,
2013-02-17 06:37:00,15.1,2.6,29.67,NW,315,5.4,5.4,57,0.00,,,0.00,WUHU21623XXSP,2013-02-17 11:37:00,
2013-02-17 07:12:00,14.5,2.8,29.65,West,270,4.0,4.0,59,0.00,,,0.00,WUHU21623XXSP,2013-02-17 12:12:00,
2013-02-17 07:17:00,14.5,2.8,29.65,WNW,292,8.3,13.6,59,0.00,,,10.52,WUHU21623XXSP,2013-02-17 12:17:00,
2013-02-17 07:22:00,14.4,2.6,29.65,WNW,292,8.5,16.3,59,0.00,,,10.52,WUHU21623XXSP,2013-02-17 12:22:00,
2013-02-17 07:27:00,14.2,2.8,29.65,NW,315,8.3,16.3,60,0.00,,,10.52,WUHU21623XXSP,2013-02-17 12:27:00,
2013-02-17 07:32:00,14.2,2.8,29.65,WSW,247,2.0,12.8,60,0.00,,,10.52,WUHU21623XXSP,2013-02-17 12:32:00,
2013-02-17 07:37:00,14.2,2.8,29.65,NW,315,6.0,9.6,60,0.00,,,10.52,WUHU21623XXSP,2013-02-17 12:37:00,
2013-02-17 07:42:00,14.2,2.8,29.64,WNW,292,15.0,15.7,60,0.00,,,10.52,WUHU21623XXSP,2013-02-17 12:42:00,
2013-02-17 07:47:00,14.2,2.8,29.64,West,270,9.6,15.7,60,0.00,,,10.52,WUHU21623XXSP,2013-02-17 12:47:00,
2013-02-17 07:52:00,14.2,3.2,29.63,NW,315,7.4,17.7,61,0.00,,,10.52,WUHU21623XXSP,2013-02-17 12:52:00,
2013-02-17 07:57:00,14.2,3.2,29.63,WNW,292,1.6,17.7,61,0.00,,,10.52,WUHU21623XXSP,2013-02-17 12:57:00,
2013-02-17 08:02:00,14.2,3.5,29.63,WNW,292,8.1,17.4,62,0.00,,,10.52,WUHU21623XXSP,2013-02-17 13:02:00,
2013-02-17 08:07:00,14.2,3.2,29.63,NNW,337,2.2,14.5,61,0.00,,,10.52,WUHU21623XXSP,2013-02-17 13:07:00,
2013-02-17 08:12:00,14.2,3.5,29.63,WNW,292,5.1,14.5,62,0.00,,,10.52,WUHU21623XXSP,2013-02-17 13:12:00,
2013-02-17 08:17:00,14.2,3.5,29.63,WNW,292,5.1,11.2,62,0.00,,,10.52,WUHU21623XXSP,2013-02-17 13:17:00,
2013-02-17 08:22:00,14.2,3.5,29.62,West,270,3.6,17.9,62,0.00,,,10.52,WUHU21623XXSP,2013-02-17 13:22:00,
2013-02-17 08:27:00,14.2,3.5,29.62,WNW,292,6.0,17.9,62,0.00,,,10.52,WUHU21623XXSP,2013-02-17 13:27:00,
2013-02-17 08:32:00,14.2,3.5,29.61,WNW,292,4.9,16.6,62,0.00,,,10.52,WUHU21623XXSP,2013-02-17 13:32:00,
2013-02-17 08:37:00,14.2,3.5,29.61,WNW,292,9.6,14.8,62,0.00,,,10.52,WUHU21623XXSP,2013-02-17 13:37:00,
2013-02-17 08:42:00,14.2,3.8,29.60,WNW,292,5.4,14.8,63,0.00,,,10.52,WUHU21623XXSP,2013-02-17 13:42:00,
2013-02-17 08:47:00,14.2,3.8,29.60,WNW,292,5.1,14.3,63,0.00,,,10.52,WUHU21623XXSP,2013-02-17 13:47:00,
2013-02-17 08:52:00,14.2,3.8,29.60,West,270,5.1,15.7,63,0.00,,,10.52,WUHU21623XXSP,2013-02-17 13:52:00,
2013-02-17 08:57:00,14.2,3.8,29.59,WNW,292,12.1,15.7,63,0.00,,,10.52,WUHU21623XXSP,2013-02-17 13:57:00,
2013-02-17 09:02:00,14.2,3.8,29.60,WNW,292,8.3,14.1,63,0.00,,,10.52,WUHU21623XXSP,2013-02-17 14:02:00,
2013-02-17 09:07:00,14.2,3.8,29.59,WNW,292,11.4,16.6,63,0.00,,,10.52,WUHU21623XXSP,2013-02-17 14:07:00,
2013-02-17 09:12:00,14.2,3.8,29.59,NW,315,3.6,19.9,63,0.00,,,10.52,WUHU21623XXSP,2013-02-17 14:12:00,
2013-02-17 09:17:00,14.4,4.0,29.59,West,270,12.8,19.9,63,0.00,,,10.52,WUHU21623XXSP,2013-02-17 14:17:00,
2013-02-17 09:22:00,14.4,4.0,29.58,NW,315,6.3,16.3,63,0.00,,,10.52,WUHU21623XXSP,2013-02-17 14:22:00,
2013-02-17 09:27:00,14.4,4.0,29.58,WNW,292,8.1,16.3,63,0.00,,,10.52,WUHU21623XXSP,2013-02-17 14:27:00,
2013-02-17 09:32:00,14.5,4.2,29.58,WNW,292,13.4,16.6,63,0.00,,,10.52,WUHU21623XXSP,2013-02-17 14:32:00,
2013-02-17 09:37:00,14.5,3.8,29.58,WNW,292,4.9,16.6,62,0.00,,,10.52,WUHU21623XXSP,2013-02-17 14:37:00,
2013-02-17 09:42:00,14.7,4.3,29.57,NNW,337,8.3,14.3,63,0.00,,,10.52,WUHU21623XXSP,2013-02-17 14:42:00,
2013-02-17 09:47:00,14.7,4.3,29.57,WNW,292,6.0,12.1,63,0.00,,,10.52,WUHU21623XXSP,2013-02-17 14:47:00,
2013-02-17 09:52:00,14.7,4.0,29.56,West,270,7.2,14.5,62,0.00,,,10.52,WUHU21623XXSP,2013-02-17 14:52:00,
2013-02-17 09:57:00,14.7,4.3,29.56,WNW,292,13.6,21.3,63,0.00,,,10.52,WUHU21623XXSP,2013-02-17 14:57:00,
2013-02-17 10:02:00,14.9,4.2,29.56,WNW,292,5.8,21.3,62,0.00,,,10.52,WUHU21623XXSP,2013-02-17 15:02:00,
2013-02-17 10:07:00,14.9,4.2,29.56,West,270,6.5,15.9,62,0.00,,,10.52,WUHU21623XXSP,2013-02-17 15:07:00,
2013-02-17 10:12:00,15.1,4.3,29.55,NW,315,5.8,16.3,62,0.00,,,10.52,WUHU21623XXSP,2013-02-17 15:12:00,
2013-02-17 10:17:00,15.3,4.5,29.55,NW,315,10.1,17.2,62,0.00,,,10.52,WUHU21623XXSP,2013-02-17 15:17:00,
2013-02-17 10:22:00,15.3,4.1,29.55,WNW,292,8.3,17.2,61,0.00,,,10.52,WUHU21623XXSP,2013-02-17 15:22:00,
2013-02-17 10:27:00,15.6,4.5,29.55,NNW,337,10.1,15.2,61,0.00,,,10.52,WUHU21623XXSP,2013-02-17 15:27:00,
2013-02-17 10:32:00,15.6,4.1,29.55,West,270,4.9,14.3,60,0.00,,,10.52,WUHU21623XXSP,2013-02-17 15:32:00,
2013-02-17 10:37:00,15.6,4.5,29.55,NW,315,8.1,13.6,61,0.00,,,10.52,WUHU21623XXSP,2013-02-17 15:37:00,
2013-02-17 10:42:00,15.6,4.1,29.55,West,270,5.6,13.4,60,0.00,,,10.52,WUHU21623XXSP,2013-02-17 15:42:00,
2013-02-17 10:47:00,15.8,4.3,29.55,WNW,292,10.5,15.9,60,0.00,,,10.52,WUHU21623XXSP,2013-02-17 15:47:00,
2013-02-17 10:52:00,15.8,4.3,29.55,WNW,292,16.3,17.9,60,0.00,,,10.52,WUHU21623XXSP,2013-02-17 15:52:00,
2013-02-17 10:57:00,15.8,4.3,29.55,NNW,337,8.7,17.9,60,0.00,,,10.52,WUHU21623XXSP,2013-02-17 15:57:00,
2013-02-17 11:02:00,16.0,4.1,29.55,West,270,5.8,17.9,59,0.00,,,10.52,WUHU21623XXSP,2013-02-17 16:02:00,
2013-02-17 11:07:00,16.0,4.5,29.55,NW,315,12.1,17.9,60,0.00,,,10.52,WUHU21623XXSP,2013-02-17 16:07:00,
2013-02-17 11:12:00,16.0,4.1,29.54,WNW,292,7.4,16.8,59,0.00,,,10.52,WUHU21623XXSP,2013-02-17 16:12:00,
2013-02-17 11:17:00,16.2,4.2,29.55,NNW,337,13.4,23.3,59,0.00,,,10.52,WUHU21623XXSP,2013-02-17 16:17:00,
2013-02-17 11:22:00,16.3,4.0,29.55,WNW,292,3.4,23.3,58,0.00,,,10.52,WUHU21623XXSP,2013-02-17 16:22:00,
2013-02-17 11:27:00,16.3,4.0,29.54,WNW,292,5.8,18.6,58,0.00,,,10.52,WUHU21623XXSP,2013-02-17 16:27:00,
2013-02-17 11:32:00,16.3,4.0,29.54,WNW,292,8.1,18.6,58,0.00,,,10.52,WUHU21623XXSP,2013-02-17 16:32:00,
2013-02-17 11:37:00,16.3,4.0,29.54,WNW,292,2.7,15.4,58,0.00,,,10.52,WUHU21623XXSP,2013-02-17 16:37:00,
2013-02-17 11:42:00,16.5,4.2,29.54,WNW,292,11.9,15.4,58,0.00,,,10.52,WUHU21623XXSP,2013-02-17 16:42:00,
2013-02-17 11:47:00,16.5,3.8,29.54,WNW,292,10.3,18.1,57,0.00,,,10.52,WUHU21623XXSP,2013-02-17 16:47:00,
2013-02-17 11:52:00,16.5,3.8,29.54,West,270,13.6,19.2,57,0.00,,,10.52,WUHU21623XXSP,2013-02-17 16:52:00,
2013-02-17 11:57:00,16.7,4.0,29.53,WNW,292,11.9,19.2,57,0.00,,,10.52,WUHU21623XXSP,2013-02-17 16:57:00,
2013-02-17 12:02:00,16.9,4.2,29.53,West,270,0.0,12.5,57,0.00,,,10.52,WUHU21623XXSP,2013-02-17 17:02:00,
2013-02-17 12:07:00,16.9,3.8,29.53,West,270,10.5,15.9,56,0.00,,,10.52,WUHU21623XXSP,2013-02-17 17:07:00,
2013-02-17 12:12:00,16.9,3.8,29.53,West,270,7.2,21.5,56,0.00,,,10.52,WUHU21623XXSP,2013-02-17 17:12:00,
2013-02-17 12:17:00,16.7,2.9,29.53,WNW,292,9.2,21.9,54,0.00,,,10.52,WUHU21623XXSP,2013-02-17 17:17:00,
2013-02-17 12:22:00,16.7,2.9,29.53,West,270,6.3,21.9,54,0.00,,,10.52,WUHU21623XXSP,2013-02-17 17:22:00,
2013-02-17 12:27:00,16.9,3.4,29.53,WNW,292,7.8,13.9,55,0.00,,,10.52,WUHU21623XXSP,2013-02-17 17:27:00,
2013-02-17 12:32:00,16.9,3.0,29.53,West,270,3.6,17.2,54,0.00,,,10.52,WUHU21623XXSP,2013-02-17 17:32:00,
2013-02-17 12:37:00,16.9,3.0,29.53,WNW,292,9.6,17.2,54,0.00,,,10.52,WUHU21623XXSP,2013-02-17 17:37:00,
2013-02-17 12:42:00,16.9,2.6,29.54,WNW,292,14.8,19.2,53,0.00,,,10.52,WUHU21623XXSP,2013-02-17 17:42:00,
2013-02-17 12:47:00,16.9,2.6,29.54,West,270,3.4,19.2,53,0.00,,,10.52,WUHU21623XXSP,2013-02-17 17:47:00,
2013-02-17 12:52:00,16.9,2.6,29.53,West,270,8.3,15.7,53,0.00,,,10.52,WUHU21623XXSP,2013-02-17 17:52:00,
2013-02-17 12:57:00,16.9,2.2,29.54,WNW,292,13.4,15.7,52,0.00,,,10.52,WUHU21623XXSP,2013-02-17 17:57:00,
2013-02-17 13:02:00,16.9,2.2,29.54,West,270,6.9,15.7,52,0.00,,,10.52,WUHU21623XXSP,2013-02-17 18:02:00,
2013-02-17 13:07:00,17.2,2.6,29.54,WNW,292,11.6,17.7,52,0.00,,,10.52,WUHU21623XXSP,2013-02-17 18:07:00,
2013-02-17 13:12:00,16.9,2.2,29.53,WNW,292,6.9,17.7,52,0.00,,,10.52,WUHU21623XXSP,2013-02-17 18:12:00,
2013-02-17 13:17:00,17.2,2.6,29.53,NNW,337,5.4,16.1,52,0.00,,,10.52,WUHU21623XXSP,2013-02-17 18:17:00,
2013-02-17 13:22:00,17.2,2.2,29.54,WNW,292,7.6,19.5,51,0.00,,,10.52,WUHU21623XXSP,2013-02-17 18:22:00,
2013-02-17 13:27:00,17.2,1.8,29.54,West,270,6.7,19.5,50,0.00,,,10.52,WUHU21623XXSP,2013-02-17 18:27:00,
2013-02-17 13:32:00,17.2,1.8,29.54,West,270,5.8,16.3,50,0.00,,,10.52,WUHU21623XXSP,2013-02-17 18:32:00,
2013-02-17 13:37:00,16.9,1.5,29.54,WNW,292,11.4,16.3,50,0.00,,,10.52,WUHU21623XXSP,2013-02-17 18:37:00,
2013-02-17 13:42:00,16.9,1.5,29.54,NNW,337,12.3,15.7,50,0.00,,,10.52,WUHU21623XXSP,2013-02-17 18:42:00,
2013-02-17 13:47:00,16.9,1.5,29.54,WNW,292,4.3,12.3,50,0.00,,,10.52,WUHU21623XXSP,2013-02-17 18:47:00,
2013-02-17 13:52:00,16.9,1.8,29.54,West,270,3.4,12.8,51,0.00,,,10.52,WUHU21623XXSP,2013-02-17 18:52:00,
2013-02-17 13:57:00,17.2,2.2,29.54,WNW,292,10.1,12.8,51,0.00,,,10.52,WUHU21623XXSP,2013-02-17 18:57:00,
2013-02-17 14:02:00,16.9,1.5,29.55,NNW,337,4.5,14.5,50,0.00,,,10.52,WUHU21623XXSP,2013-02-17 19:02:00,
2013-02-17 14:07:00,16.9,1.5,29.54,West,270,1.8,15.0,50,0.00,,,10.52,WUHU21623XXSP,2013-02-17 19:07:00,
2013-02-17 14:12:00,16.9,1.5,29.54,West,270,3.6,15.0,50,0.00,,,10.52,WUHU21623XXSP,2013-02-17 19:12:00,
2013-02-17 14:17:00,16.7,1.3,29.54,NW,315,8.5,13.9,50,0.00,,,10.52,WUHU21623XXSP,2013-02-17 19:17:00,
2013-02-17 14:22:00,16.5,1.1,29.54,West,270,4.0,11.2,50,0.00,,,10.52,WUHU21623XXSP,2013-02-17 19:22:00,
2013-02-17 14:27:00,16.3,1.0,29.54,WNW,292,6.7,15.4,50,0.00,,,10.52,WUHU21623XXSP,2013-02-17 19:27:00,
2013-02-17 14:32:00,16.3,1.0,29.55,SW,225,4.3,15.4,50,0.00,,,10.52,WUHU21623XXSP,2013-02-17 19:32:00,
2013-02-17 14:37:00,16.3,0.5,29.55,WNW,292,12.8,16.6,49,0.00,,,10.52,WUHU21623XXSP,2013-02-17 19:37:00,
2013-02-17 14:42:00,16.3,0.5,29.55,SW,225,4.3,16.6,49,0.00,,,10.52,WUHU21623XXSP,2013-02-17 19:42:00,
2013-02-17 14:47:00,16.3,0.5,29.55,West,270,14.1,17.2,49,0.00,,,10.52,WUHU21623XXSP,2013-02-17 19:47:00,
2013-02-17 14:52:00,16.3,0.5,29.55,WNW,292,15.2,17.2,49,0.00,,,10.52,WUHU21623XXSP,2013-02-17 19:52:00,
2013-02-17 14:57:00,16.3,0.5,29.55,West,270,2.2,15.2,49,0.00,,,10.52,WUHU21623XXSP,2013-02-17 19:57:00,
2013-02-17 15:02:00,16.5,1.1,29.54,West,270,0.0,15.2,50,0.00,,,10.52,WUHU21623XXSP,2013-02-17 20:02:00,
2013-02-17 15:07:00,16.5,1.1,29.55,NNW,337,8.3,13.2,50,0.00,,,10.52,WUHU21623XXSP,2013-02-17 20:07:00,
2013-02-17 15:12:00,16.5,0.7,29.55,West,270,3.4,15.0,49,0.00,,,10.52,WUHU21623XXSP,2013-02-17 20:12:00,
2013-02-17 15:17:00,16.5,1.1,29.55,WNW,292,5.8,15.0,50,0.00,,,10.52,WUHU21623XXSP,2013-02-17 20:17:00,
2013-02-17 15:22:00,16.3,0.5,29.55,NW,315,3.6,11.2,49,0.00,,,10.52,WUHU21623XXSP,2013-02-17 20:22:00,
2013-02-17 15:27:00,16.3,0.5,29.55,West,270,3.4,12.1,49,0.00,,,10.52,WUHU21623XXSP,2013-02-17 20:27:00,
2013-02-17 15:32:00,16.3,0.5,29.55,SSW,202,6.7,23.0,49,0.00,,,10.52,WUHU21623XXSP,2013-02-17 20:32:00,
2013-02-17 15:37:00,16.3,0.5,29.55,SSW,202,5.8,23.0,49,0.00,,,10.52,WUHU21623XXSP,2013-02-17 20:37:00,
2013-02-17 15:42:00,16.3,0.5,29.55,NW,315,3.4,12.1,49,0.00,,,10.52,WUHU21623XXSP,2013-02-17 20:42:00,
2013-02-17 15:47:00,16.3,0.5,29.56,WNW,292,0.0,19.5,49,0.00,,,10.52,WUHU21623XXSP,2013-02-17 20:47:00,
2013-02-17 15:52:00,16.3,0.5,29.56,West,270,1.8,19.5,49,0.00,,,10.52,WUHU21623XXSP,2013-02-17 20:52:00,
2013-02-17 15:57:00,16.3,1.0,29.56,SSW,202,5.4,13.6,50,0.00,,,10.52,WUHU21623XXSP,2013-02-17 20:57:00,
2013-02-17 16:02:00,16.3,0.5,29.56,SSW,202,0.0,13.6,49,0.00,,,10.52,WUHU21623XXSP,2013-02-17 21:02:00,
2013-02-17 16:07:00,16.3,0.5,29.56,North,0,6.9,12.5,49,0.00,,,10.52,WUHU21623XXSP,2013-02-17 21:07:00,
2013-02-17 16:12:00,16.2,0.8,29.55,NNW,337,0.2,12.3,50,0.00,,,10.52,WUHU21623XXSP,2013-02-17 21:12:00,
2013-02-17 16:17:00,16.2,0.8,29.56,WSW,247,0.0,19.5,50,0.00,,,10.52,WUHU21623XXSP,2013-02-17 21:17:00,
2013-02-17 16:22:00,16.2,0.8,29.56,WNW,292,0.0,19.5,50,0.00,,,10.52,WUHU21623XXSP,2013-02-17 21:22:00,
2013-02-17 16:27:00,16.0,0.7,29.56,NW,315,1.1,19.2,50,0.00,,,10.52,WUHU21623XXSP,2013-02-17 21:27:00,
2013-02-17 16:32:00,15.8,0.5,29.57,West,270,2.7,19.2,50,0.00,,,10.52,WUHU21623XXSP,2013-02-17 21:32:00,
2013-02-17 16:37:00,15.8,1.3,29.57,West,270,4.9,19.0,52,0.00,,,10.52,WUHU21623XXSP,2013-02-17 21:37:00,
2013-02-17 16:42:00,15.6,0.7,29.58,WNW,292,2.9,18.8,51,0.00,,,10.52,WUHU21623XXSP,2013-02-17 21:42:00,
2013-02-17 16:47:00,15.6,0.7,29.58,West,270,4.7,18.8,51,0.00,,,10.52,WUHU21623XXSP,2013-02-17 21:47:00,
2013-02-17 16:52:00,15.6,1.1,29.58,South,180,18.1,18.1,52,0.00,,,10.52,WUHU21623XXSP,2013-02-17 21:52:00,
2013-02-17 16:57:00,15.4,0.5,29.58,WSW,247,5.4,19.0,51,0.00,,,10.52,WUHU21623XXSP,2013-02-17 21:57:00,
2013-02-17 17:02:00,15.3,0.7,29.59,West,270,4.3,19.0,52,0.00,,,10.52,WUHU21623XXSP,2013-02-17 22:02:00,
2013-02-17 17:07:00,15.3,0.7,29.59,WSW,247,1.6,17.7,52,0.00,,,10.52,WUHU21623XXSP,2013-02-17 22:07:00,
2013-02-17 17:12:00,14.9,0.4,29.60,WNW,292,9.6,17.7,52,0.00,,,10.52,WUHU21623XXSP,2013-02-17 22:12:00,
2013-02-17 17:17:00,14.9,0.4,29.60,WSW,247,2.5,14.8,52,0.00,,,10.52,WUHU21623XXSP,2013-02-17 22:17:00,
2013-02-17 17:22:00,14.7,0.2,29.61,West,270,0.0,14.8,52,0.00,,,10.52,WUHU21623XXSP,2013-02-17 22:22:00,
2013-02-17 17:27:00,14.7,0.6,29.61,West,270,0.0,11.6,53,0.00,,,10.52,WUHU21623XXSP,2013-02-17 22:27:00,
2013-02-17 17:32:00,14.7,0.6,29.61,WNW,292,5.6,13.2,53,0.00,,,10.52,WUHU21623XXSP,2013-02-17 22:32:00,
2013-02-17 17:37:00,14.5,0.4,29.61,West,270,7.4,14.8,53,0.00,,,10.52,WUHU21623XXSP,2013-02-17 22:37:00,
2013-02-17 17:42:00,14.5,0.8,29.61,WNW,292,4.9,23.7,54,0.00,,,10.52,WUHU21623XXSP,2013-02-17 22:42:00,
2013-02-17 17:47:00,14.5,0.4,29.62,NW,315,3.1,23.7,53,0.00,,,10.52,WUHU21623XXSP,2013-02-17 22:47:00,
2013-02-17 17:52:00,14.4,0.2,29.62,SW,225,7.4,17.7,53,0.00,,,10.52,WUHU21623XXSP,2013-02-17 22:52:00,
2013-02-17 17:57:00,14.4,0.6,29.62,WNW,292,12.5,23.5,54,0.00,,,10.52,WUHU21623XXSP,2013-02-17 22:57:00,
2013-02-17 18:02:00,14.4,0.6,29.62,WNW,292,5.6,23.5,54,0.00,,,10.52,WUHU21623XXSP,2013-02-17 23:02:00,
2013-02-17 18:07:00,14.2,0.1,29.62,NNW,337,6.7,20.4,53,0.00,,,10.52,WUHU21623XXSP,2013-02-17 23:07:00,
2013-02-17 18:12:00,14.2,0.4,29.63,West,270,3.1,20.4,54,0.00,,,10.52,WUHU21623XXSP,2013-02-17 23:12:00,
2013-02-17 18:17:00,14.2,0.4,29.63,WNW,292,9.8,11.6,54,0.00,,,10.52,WUHU21623XXSP,2013-02-17 23:17:00,
2013-02-17 18:22:00,14.2,0.4,29.63,SW,225,3.6,16.3,54,0.00,,,10.52,WUHU21623XXSP,2013-02-17 23:22:00,
2013-02-17 18:27:00,14.2,0.4,29.62,NW,315,7.4,16.3,54,0.00,,,10.52,WUHU21623XXSP,2013-02-17 23:27:00,
2013-02-17 18:32:00,14.2,0.4,29.63,West,270,4.3,12.8,54,0.00,,,10.52,WUHU21623XXSP,2013-02-17 23:32:00,
2013-02-17 18:37:00,14.2,0.4,29.63,NNE,22,0.0,12.8,54,0.00,,,10.52,WUHU21623XXSP,2013-02-17 23:37:00,
2013-02-17 18:42:00,14.2,0.1,29.63,West,270,9.6,16.8,53,0.00,,,10.52,WUHU21623XXSP,2013-02-17 23:42:00,
2013-02-17 18:47:00,14.2,0.1,29.63,West,270,7.4,16.8,53,0.00,,,10.52,WUHU21623XXSP,2013-02-17 23:47:00,
2013-02-17 18:52:00,14.2,0.1,29.63,West,270,3.8,19.2,53,0.00,,,10.52,WUHU21623XXSP,2013-02-17 23:52:00,
2013-02-17 18:57:00,14.2,0.1,29.63,WSW,247,0.0,19.2,53,0.00,,,10.52,WUHU21623XXSP,2013-02-17 23:57:00,
2013-02-17 19:02:00,14.2,0.4,29.63,SE,135,1.3,13.9,54,0.00,,,10.52,WUHU21623XXSP,2013-02-18 00:02:00,
2013-02-17 19:07:00,14.2,0.1,29.63,WSW,247,6.0,13.6,53,0.00,,,10.52,WUHU21623XXSP,2013-02-18 00:07:00,
2013-02-17 19:12:00,14.2,0.1,29.63,NNW,337,10.1,13.6,53,0.00,,,10.52,WUHU21623XXSP,2013-02-18 00:12:00,
2013-02-17 19:17:00,14.2,0.1,29.63,East,90,4.5,13.2,53,0.00,,,10.52,WUHU21623XXSP,2013-02-18 00:17:00,
2013-02-17 19:22:00,14.2,0.1,29.62,WNW,292,6.0,13.2,53,0.00,,,10.52,WUHU21623XXSP,2013-02-18 00:22:00,
2013-02-17 19:27:00,14.2,0.1,29.63,West,270,6.5,16.8,53,0.00,,,10.52,WUHU21623XXSP,2013-02-18 00:27:00,
2013-02-17 19:32:00,13.8,-0.3,29.63,ESE,112,3.6,17.9,53,0.00,,,10.52,WUHU21623XXSP,2013-02-18 00:32:00,
2013-02-17 19:37:00,13.8,-0.3,29.63,WNW,292,8.1,17.9,53,0.00,,,10.52,WUHU21623XXSP,2013-02-18 00:37:00,
2013-02-17 19:42:00,13.8,-0.3,29.63,WNW,292,2.2,20.1,53,0.00,,,10.52,WUHU21623XXSP,2013-02-18 00:42:00,
2013-02-17 19:47:00,13.6,-0.5,29.63,West,270,4.9,20.1,53,0.00,,,10.52,WUHU21623XXSP,2013-02-18 00:47:00,
2013-02-17 19:52:00,13.6,-0.5,29.63,SW,225,7.2,15.0,53,0.00,,,10.52,WUHU21623XXSP,2013-02-18 00:52:00,
2013-02-17 19:57:00,13.3,-0.8,29.64,SE,135,6.9,15.0,53,0.00,,,10.52,WUHU21623XXSP,2013-02-18 00:57:00,
2013-02-17 20:02:00,13.3,-0.8,29.64,West,270,5.1,12.3,53,0.00,,,10.52,WUHU21623XXSP,2013-02-18 01:02:00,
2013-02-17 20:07:00,13.3,-0.8,29.64,West,270,9.4,16.8,53,0.00,,,10.52,WUHU21623XXSP,2013-02-18 01:07:00,
2013-02-17 20:12:00,13.1,-0.6,29.65,NW,315,8.1,16.8,54,0.00,,,10.52,WUHU21623XXSP,2013-02-18 01:12:00,
2013-02-17 20:17:00,12.9,-0.7,29.65,West,270,6.3,17.9,54,0.00,,,10.52,WUHU21623XXSP,2013-02-18 01:17:00,
2013-02-17 20:22:00,12.9,-1.1,29.65,West,270,8.1,17.9,53,0.00,,,10.52,WUHU21623XXSP,2013-02-18 01:22:00,
2013-02-17 20:27:00,12.7,-1.3,29.64,WNW,292,20.1,23.7,53,0.00,,,10.52,WUHU21623XXSP,2013-02-18 01:27:00,
2013-02-17 20:32:00,12.7,-1.3,29.65,NNW,337,2.5,23.7,53,0.00,,,10.52,WUHU21623XXSP,2013-02-18 01:32:00,
2013-02-17 20:37:00,12.6,-1.1,29.65,NW,315,13.4,22.4,54,0.00,,,10.52,WUHU21623XXSP,2013-02-18 01:37:00,
2013-02-17 20:42:00,12.6,-1.1,29.66,WNW,292,13.9,16.3,54,0.00,,,10.52,WUHU21623XXSP,2013-02-18 01:42:00,
2013-02-17 20:47:00,12.4,-1.2,29.66,West,270,6.9,16.3,54,0.00,,,10.52,WUHU21623XXSP,2013-02-18 01:47:00,
2013-02-17 20:52:00,12.2,-1.4,29.66,NW,315,11.9,16.3,54,0.00,,,10.52,WUHU21623XXSP,2013-02-18 01:52:00,
2013-02-17 20:57:00,12.2,-1.4,29.66,SW,225,6.7,14.8,54,0.00,,,10.52,WUHU21623XXSP,2013-02-18 01:57:00,
2013-02-17 21:02:00,12.0,-1.6,29.67,WNW,292,0.0,14.8,54,0.00,,,10.52,WUHU21623XXSP,2013-02-18 02:02:00,
2013-02-17 21:07:00,12.0,-1.2,29.68,SSW,202,7.8,21.0,55,0.00,,,10.52,WUHU21623XXSP,2013-02-18 02:07:00,
2013-02-17 21:13:00,12.0,-1.2,29.68,West,270,13.2,21.0,55,0.00,,,10.52,WUHU21623XXSP,2013-02-18 02:13:00,
2013-02-17 21:18:00,11.8,-1.4,29.68,SSE,157,9.4,17.2,55,0.00,,,10.52,WUHU21623XXSP,2013-02-18 02:18:00,
2013-02-17 21:23:00,11.7,-1.5,29.68,NW,315,0.0,17.2,55,0.00,,,10.52,WUHU21623XXSP,2013-02-18 02:23:00,
2013-02-17 21:28:00,11.7,-1.5,29.68,NW,315,3.8,15.4,55,0.00,,,10.52,WUHU21623XXSP,2013-02-18 02:28:00,
2013-02-17 21:33:00,11.5,-1.3,29.69,West,270,0.0,15.4,56,0.00,,,10.52,WUHU21623XXSP,2013-02-18 02:33:00,
2013-02-17 21:38:00,11.5,-1.3,29.68,NW,315,1.1,13.2,56,0.00,,,10.52,WUHU21623XXSP,2013-02-18 02:38:00,
2013-02-17 21:43:00,11.5,-1.3,29.69,SSE,157,8.3,21.7,56,0.00,,,10.52,WUHU21623XXSP,2013-02-18 02:43:00,
2013-02-17 21:48:00,11.3,-1.5,29.69,NW,315,7.2,21.7,56,0.00,,,10.52,WUHU21623XXSP,2013-02-18 02:48:00,
2013-02-17 21:53:00,11.3,-1.5,29.70,NNW,337,0.0,18.8,56,0.00,,,10.52,WUHU21623XXSP,2013-02-18 02:53:00,
2013-02-17 21:58:00,11.1,-1.2,29.70,SW,225,0.0,18.8,57,0.00,,,10.52,WUHU21623XXSP,2013-02-18 02:58:00,
2013-02-17 22:03:00,11.1,-1.2,29.70,WNW,292,8.3,20.6,57,0.00,,,10.52,WUHU21623XXSP,2013-02-18 03:03:00,
2013-02-17 22:08:00,10.9,-1.4,29.71,West,270,3.6,20.6,57,0.00,,,10.52,WUHU21623XXSP,2013-02-18 03:08:00,
2013-02-17 22:13:00,10.9,-1.4,29.70,West,270,5.1,15.4,57,0.00,,,10.52,WUHU21623XXSP,2013-02-18 03:13:00,
2013-02-17 22:18:00,10.9,-1.4,29.71,West,270,4.5,16.3,57,0.00,,,10.52,WUHU21623XXSP,2013-02-18 03:18:00,
2013-02-17 22:23:00,10.8,-1.2,29.71,West,270,4.9,16.3,58,0.00,,,10.52,WUHU21623XXSP,2013-02-18 03:23:00,
2013-02-17 22:28:00,10.8,-1.2,29.71,West,270,0.0,14.3,58,0.00,,,10.52,WUHU21623XXSP,2013-02-18 03:28:00,
2013-02-17 22:33:00,10.8,-1.6,29.71,NE,45,2.0,13.2,57,0.00,,,10.52,WUHU21623XXSP,2013-02-18 03:33:00,
2013-02-17 22:38:00,10.8,-1.2,29.72,WNW,292,3.1,13.2,58,0.00,,,10.52,WUHU21623XXSP,2013-02-18 03:38:00,
2013-02-17 22:43:00,10.8,-1.2,29.71,SW,225,13.6,13.6,58,0.00,,,10.52,WUHU21623XXSP,2013-02-18 03:43:00,
2013-02-17 22:48:00,10.8,-1.2,29.72,West,270,0.0,13.6,58,0.00,,,10.52,WUHU21623XXSP,2013-02-18 03:48:00,
2013-02-17 22:53:00,10.8,-0.8,29.72,West,270,3.8,17.0,59,0.00,,,10.52,WUHU21623XXSP,2013-02-18 03:53:00,
2013-02-17 22:58:00,10.8,-0.8,29.73,SE,135,8.9,17.0,59,0.00,,,10.52,WUHU21623XXSP,2013-02-18 03:58:00,
2013-02-17 23:03:00,10.8,-0.8,29.73,NNE,22,0.0,16.3,59,0.00,,,10.52,WUHU21623XXSP,2013-02-18 04:03:00,
2013-02-17 23:08:00,10.8,-0.8,29.73,SSW,202,0.0,16.3,59,0.00,,,10.52,WUHU21623XXSP,2013-02-18 04:08:00,
2013-02-17 23:13:00,10.8,-0.8,29.73,West,270,11.9,17.9,59,0.00,,,10.52,WUHU21623XXSP,2013-02-18 04:13:00,
2013-02-17 23:18:00,10.8,-0.8,29.74,NNW,337,3.6,17.9,59,0.00,,,10.52,WUHU21623XXSP,2013-02-18 04:18:00,
2013-02-17 23:23:00,10.8,-0.8,29.73,NW,315,7.2,17.7,59,0.00,,,10.52,WUHU21623XXSP,2013-02-18 04:23:00,
2013-02-17 23:28:00,10.6,-1.0,29.74,NW,315,10.5,19.9,59,0.00,,,10.52,WUHU21623XXSP,2013-02-18 04:28:00,
2013-02-17 23:33:00,10.6,-1.0,29.74,West,270,3.6,19.9,59,0.00,,,10.52,WUHU21623XXSP,2013-02-18 04:33:00,
2013-02-17 23:38:00,10.6,-1.0,29.74,WNW,292,6.3,17.9,59,0.00,,,10.52,WUHU21623XXSP,2013-02-18 04:38:00,
2013-02-17 23:43:00,10.6,-1.0,29.74,WNW,292,8.7,17.9,59,0.00,,,10.52,WUHU21623XXSP,2013-02-18 04:43:00,
2013-02-17 23:48:00,10.6,-1.0,29.75,WNW,292,6.3,14.3,59,0.00,,,10.52,WUHU21623XXSP,2013-02-18 04:48:00,
2013-02-17 23:53:00,10.6,-1.0,29.74,SW,225,7.6,17.0,59,0.00,,,10.52,WUHU21623XXSP,2013-02-18 04:53:00,
2013-02-17 23:58:00,10.6,-1.0,29.75,SW,225,14.5,17.0,59,0.00,,,10.52,WUHU21623XXSP,2013-02-18 04:58:00,